createdAt,value
2023-02-22T00:00:22.897Z,101386.34
2023-02-22T00:02:50.909Z,101383.81
2023-02-22T00:05:20.153Z,101384.66
2023-02-22T00:07:49.564Z,101380.31
2023-02-22T00:10:20.418Z,101386.44
2023-02-22T00:12:48.995Z,101382.94
2023-02-22T00:15:17.165Z,101368.03
2023-02-22T00:17:44.735Z,101367.16
2023-02-22T00:20:14.074Z,101371.56
2023-02-22T00:22:42.349Z,101366.41
2023-02-22T00:25:11.462Z,101359.56
2023-02-22T00:27:38.993Z,101357.75
2023-02-22T00:30:07.033Z,101355.13
2023-02-22T00:32:34.686Z,101357.88
2023-02-22T00:35:05.535Z,101364.91
2023-02-22T00:37:33.695Z,101363.13
2023-02-22T00:40:01.170Z,101351.75
2023-02-22T00:42:30.068Z,101350.06
2023-02-22T00:45:00.513Z,101348.28
2023-02-22T00:47:28.370Z,101342.09
2023-02-22T00:49:55.967Z,101340.41
2023-02-22T00:52:23.545Z,101335.13
2023-02-22T00:54:51.107Z,101329.88
2023-02-22T00:57:19.141Z,101332.56
2023-02-22T00:59:48.121Z,101331.78
2023-02-22T01:02:15.603Z,101326.63
2023-02-22T01:04:43.136Z,101330.19
2023-02-22T01:07:10.701Z,101322.41
2023-02-22T01:09:39.605Z,101321.56
2023-02-22T01:12:08.112Z,101325.09
2023-02-22T01:14:35.632Z,101324.25
2023-02-22T01:17:04.794Z,101320.78
2023-02-22T01:19:32.999Z,101325.28
2023-02-22T01:22:00.615Z,101323.59
2023-02-22T01:24:28.227Z,101324.44
2023-02-22T01:26:55.956Z,101328.03
2023-02-22T01:29:23.572Z,101328.84
2023-02-22T01:31:55.058Z,101332.44
2023-02-22T01:34:24.652Z,101333.28
2023-02-22T01:36:52.188Z,101321.91
2023-02-22T01:39:19.665Z,101323.59
2023-02-22T01:41:47.458Z,101319.28
2023-02-22T01:44:19.252Z,101317.59
2023-02-22T01:46:46.762Z,101311.50
2023-02-22T01:49:15.065Z,101318.59
2023-02-22T01:51:45.081Z,101315.13
2023-02-22T01:54:13.829Z,101310.81
2023-02-22T01:56:41.829Z,101314.38
2023-02-22T01:59:12.455Z,101317.19
2023-02-22T02:01:42.896Z,101311.94
2023-02-22T02:04:11.653Z,101309.38
2023-02-22T02:06:39.347Z,101304.13
2023-02-22T02:09:10.806Z,101298.03
2023-02-22T02:11:40.392Z,101293.72
2023-02-22T02:14:08.975Z,101295.50
2023-02-22T02:16:37.449Z,101287.69
2023-02-22T02:19:05.067Z,101292.00
2023-02-22T02:21:40.601Z,101283.28
2023-02-22T02:24:23.912Z,101286.00
2023-02-22T02:27:04.122Z,101286.75
2023-02-22T02:29:50.078Z,101285.06
2023-02-22T02:32:23.227Z,101283.19
2023-02-22T02:34:51.507Z,101282.44
2023-02-22T02:37:21.038Z,101278.13
2023-02-22T02:39:50.286Z,101278.28
2023-02-22T02:42:18.196Z,101271.44
2023-02-22T02:44:47.225Z,101271.63
2023-02-22T02:47:15.470Z,101275.16
2023-02-22T02:49:45.335Z,101271.78
2023-02-22T02:52:13.519Z,101266.53
2023-02-22T02:54:41.116Z,101255.94
2023-02-22T02:57:09.440Z,101255.03
2023-02-22T02:59:37.470Z,101249.66
2023-02-22T03:02:09.329Z,101252.19
2023-02-22T03:04:39.479Z,101253.13
2023-02-22T03:07:18.646Z,101239.25
2023-02-22T03:09:49.931Z,101237.53
2023-02-22T03:12:22.961Z,101235.84
2023-02-22T03:14:55.744Z,101224.50
2023-02-22T03:17:24.346Z,101223.66
2023-02-22T03:19:52.563Z,101227.13
2023-02-22T03:22:23.768Z,101228.91
2023-02-22T03:24:53.058Z,101226.38
2023-02-22T03:27:22.775Z,101223.00
2023-02-22T03:29:50.729Z,101216.91
2023-02-22T03:32:19.915Z,101217.75
2023-02-22T03:34:50.633Z,101214.28
2023-02-22T03:37:18.662Z,101217.75
2023-02-22T03:39:47.611Z,101213.34
2023-02-22T03:42:15.844Z,101216.72
2023-02-22T03:44:43.833Z,101210.63
2023-02-22T03:47:12.667Z,101210.63
2023-02-22T03:49:41.622Z,101212.41
2023-02-22T03:52:09.272Z,101214.19
2023-02-22T03:54:36.848Z,101208.94
2023-02-22T03:57:07.859Z,101209.78
2023-02-22T03:59:35.346Z,101207.31
2023-02-22T04:02:03.237Z,101198.78
2023-02-22T04:04:30.793Z,101204.03
2023-02-22T04:06:58.426Z,101194.56
2023-02-22T04:09:26.065Z,101199.03
2023-02-22T04:11:53.620Z,101194.81
2023-02-22T04:14:23.844Z,101191.53
2023-02-22T04:16:51.553Z,101184.75
2023-02-22T04:19:19.163Z,101190.19
2023-02-22T04:21:46.672Z,101190.34
2023-02-22T04:24:14.360Z,101188.66
2023-02-22T04:26:41.905Z,101190.53
2023-02-22T04:29:09.525Z,101192.41
2023-02-22T04:31:38.533Z,101184.69
2023-02-22T04:34:06.301Z,101193.50
2023-02-22T04:36:33.822Z,101181.41
2023-02-22T04:39:01.444Z,101187.66
2023-02-22T04:41:29.036Z,101194.78
2023-02-22T04:43:57.331Z,101187.00
2023-02-22T04:46:24.959Z,101188.78
2023-02-22T04:48:54.043Z,101190.66
2023-02-22T04:51:21.753Z,101193.28
2023-02-22T04:53:49.250Z,101188.97
2023-02-22T04:56:18.036Z,101189.88
2023-02-22T04:58:45.546Z,101182.00
2023-02-22T05:01:13.111Z,101182.00
2023-02-22T05:03:40.672Z,101181.16
2023-02-22T05:06:09.658Z,101174.13
2023-02-22T05:08:37.216Z,101173.28
2023-02-22T05:11:05.174Z,101169.91
2023-02-22T05:13:32.680Z,101169.06
2023-02-22T05:16:00.193Z,101171.69
2023-02-22T05:18:27.670Z,101169.06
2023-02-22T05:20:55.196Z,101174.31
2023-02-22T05:23:24.151Z,101168.13
2023-02-22T05:25:51.737Z,101168.03
2023-02-22T05:28:19.443Z,101168.88
2023-02-22T05:30:47.124Z,101170.59
2023-02-22T05:33:14.753Z,101174.13
2023-02-22T05:35:42.329Z,101168.88
2023-02-22T05:38:11.260Z,101152.28
2023-02-22T05:40:40.254Z,101153.97
2023-02-22T05:43:07.902Z,101150.50
2023-02-22T05:45:36.152Z,101146.28
2023-02-22T05:48:03.903Z,101143.66
2023-02-22T05:50:33.165Z,101134.94
2023-02-22T05:53:00.921Z,101132.31
2023-02-22T05:55:28.453Z,101134.94
2023-02-22T05:57:57.351Z,101128.84
2023-02-22T06:00:25.886Z,101127.06
2023-02-22T06:02:56.930Z,101130.63
2023-02-22T06:05:24.567Z,101128.94
2023-02-22T06:07:52.355Z,101126.41
2023-02-22T06:10:20.059Z,101122.00
2023-02-22T06:12:47.623Z,101125.53
2023-02-22T06:15:17.045Z,101132.66
2023-02-22T06:17:44.984Z,101130.97
2023-02-22T06:20:13.277Z,101121.31
2023-02-22T06:22:41.170Z,101122.25
2023-02-22T06:25:09.076Z,101121.41
2023-02-22T06:27:37.406Z,101120.47
2023-02-22T06:30:05.252Z,101126.56
2023-02-22T06:32:34.239Z,101116.91
2023-02-22T06:35:01.750Z,101129.09
2023-02-22T06:37:29.289Z,101123.84
2023-02-22T06:39:59.169Z,101124.69
2023-02-22T06:42:28.308Z,101122.00
2023-02-22T06:44:55.808Z,101119.38
2023-02-22T06:47:23.289Z,101127.16
2023-02-22T06:49:54.933Z,101122.75
2023-02-22T06:52:22.772Z,101122.84
2023-02-22T06:54:50.485Z,101118.44
2023-02-22T06:57:18.388Z,101119.28
2023-02-22T06:59:45.916Z,101115.81
2023-02-22T07:02:13.772Z,101114.88
2023-02-22T07:04:43.422Z,101120.97
2023-02-22T07:07:12.608Z,101120.97
2023-02-22T07:09:40.072Z,101108.78
2023-02-22T07:12:07.960Z,101105.41
2023-02-22T07:14:35.480Z,101107.16
2023-02-22T07:17:03.366Z,101112.53
2023-02-22T07:19:30.861Z,101109.06
2023-02-22T07:21:59.357Z,101103.06
2023-02-22T07:24:29.182Z,101104.94
2023-02-22T07:26:56.767Z,101106.78
2023-02-22T07:29:24.241Z,101106.88
2023-02-22T07:31:58.884Z,101108.84
2023-02-22T07:34:26.386Z,101114.09
2023-02-22T07:36:53.925Z,101107.06
2023-02-22T07:39:21.398Z,101108.84
2023-02-22T07:41:50.902Z,101113.25
2023-02-22T07:44:18.470Z,101114.09
2023-02-22T07:46:47.792Z,101120.16
2023-02-22T07:49:15.259Z,101115.00
2023-02-22T07:51:42.741Z,101121.16
2023-02-22T07:54:10.262Z,101109.00
2023-02-22T07:56:37.707Z,101108.16
2023-02-22T07:59:06.511Z,101121.25
2023-02-22T08:01:35.630Z,101109.00
2023-02-22T08:04:04.228Z,101103.84
2023-02-22T08:06:32.037Z,101117.06
2023-02-22T08:08:59.663Z,101103.94
2023-02-22T08:11:27.282Z,101100.56
2023-02-22T08:13:54.790Z,101106.66
2023-02-22T08:16:23.634Z,101092.59
2023-02-22T08:18:51.135Z,101089.03
2023-02-22T08:21:19.017Z,101089.97
2023-02-22T08:23:46.700Z,101086.50
2023-02-22T08:26:18.494Z,101087.34
2023-02-22T08:28:45.961Z,101095.13
2023-02-22T08:31:13.561Z,101097.00
2023-02-22T08:33:42.588Z,101081.41
2023-02-22T08:36:10.275Z,101084.97
2023-02-22T08:38:38.005Z,101070.91
2023-02-22T08:41:06.927Z,101083.13
2023-02-22T08:43:34.438Z,101089.97
2023-02-22T08:46:02.007Z,101096.81
2023-02-22T08:48:29.502Z,101078.44
2023-02-22T08:50:58.737Z,101087.94
2023-02-22T08:53:26.280Z,101087.00
2023-02-22T08:55:53.883Z,101094.78
2023-02-22T08:58:21.340Z,101092.16
2023-02-22T09:00:49.160Z,101083.34
2023-02-22T09:03:16.869Z,101092.06
2023-02-22T09:05:44.830Z,101091.13
2023-02-22T09:08:13.869Z,101096.28
2023-02-22T09:10:41.922Z,101094.44
2023-02-22T09:13:09.435Z,101093.50
2023-02-22T09:15:37.195Z,101098.75
2023-02-22T09:18:05.052Z,101089.19
2023-02-22T09:20:32.546Z,101083.75
2023-02-22T09:23:02.882Z,101082.81
2023-02-22T09:25:31.959Z,101083.56
2023-02-22T09:27:59.503Z,101083.56
2023-02-22T09:30:28.224Z,101087.91
2023-02-22T09:32:56.567Z,101084.44
2023-02-22T09:35:27.123Z,101089.69
2023-02-22T09:37:55.524Z,101085.28
2023-02-22T09:40:25.942Z,101078.31
2023-02-22T09:42:58.042Z,101076.63
2023-02-22T09:45:28.638Z,101071.38
2023-02-22T09:47:58.608Z,101061.81
2023-02-22T09:50:29.722Z,101056.56
2023-02-22T09:52:57.885Z,101055.56
2023-02-22T09:55:31.040Z,101055.38
2023-02-22T09:58:01.550Z,101062.09
2023-02-22T10:00:32.490Z,101053.31
2023-02-22T10:03:01.521Z,101055.84
2023-02-22T10:05:31.100Z,101058.38
2023-02-22T10:07:59.582Z,101056.50
2023-02-22T10:10:28.186Z,101058.13
2023-02-22T10:12:57.553Z,101060.56
2023-02-22T10:15:46.120Z,101056.06
2023-02-22T10:18:34.716Z,101062.06
2023-02-22T10:21:03.652Z,101053.31
2023-02-22T10:23:32.015Z,101061.88
2023-02-22T10:26:00.786Z,101052.13
2023-02-22T10:28:30.951Z,101044.94
2023-02-22T10:31:01.452Z,101040.31
2023-02-22T10:33:29.282Z,101039.22
2023-02-22T10:35:56.825Z,101044.06
2023-02-22T10:38:25.298Z,101041.91
2023-02-22T10:40:54.886Z,101042.59
2023-02-22T10:43:23.464Z,101040.50
2023-02-22T10:45:51.602Z,101036.78
2023-02-22T10:48:21.120Z,101034.78
2023-02-22T10:50:48.779Z,101035.47
2023-02-22T10:53:16.383Z,101036.03
2023-02-22T10:56:02.563Z,101022.47
2023-02-22T10:58:30.070Z,101022.84
2023-02-22T11:00:57.588Z,101022.47
2023-02-22T11:03:26.616Z,101015.91
2023-02-22T11:05:54.140Z,101012.91
2023-02-22T11:08:25.731Z,101008.94
2023-02-22T11:10:53.844Z,101000.56
2023-02-22T11:13:26.516Z,101005.50
2023-02-22T11:15:54.294Z,101007.84
2023-02-22T11:18:30.119Z,101007.56
2023-02-22T11:21:04.648Z,101008.91
2023-02-22T11:23:32.182Z,101012.94
2023-02-22T11:26:03.780Z,101008.22
2023-02-22T11:28:32.872Z,101008.75
2023-02-22T11:31:01.250Z,100995.31
2023-02-22T11:33:31.119Z,100994.06
2023-02-22T11:35:59.352Z,100982.28
2023-02-22T11:38:27.466Z,100992.38
2023-02-22T11:41:17.539Z,100983.25
2023-02-22T11:43:45.751Z,100974.94
2023-02-22T11:46:14.099Z,100969.25
2023-02-22T11:48:44.904Z,100966.19
2023-02-22T11:51:16.233Z,100962.94
2023-02-22T11:53:47.252Z,100953.66
2023-02-22T11:56:20.566Z,100957.22
2023-02-22T11:58:51.132Z,100945.19
2023-02-22T12:01:22.541Z,100940.09
2023-02-22T12:03:55.184Z,100938.84
2023-02-22T12:06:27.016Z,100932.31
2023-02-22T12:08:58.845Z,100939.00
2023-02-22T12:11:27.205Z,100931.97
2023-02-22T12:13:58.802Z,100930.06
2023-02-22T12:16:29.878Z,100930.78
2023-02-22T12:19:06.485Z,100929.00
2023-02-22T12:21:33.977Z,100920.88
2023-02-22T12:24:02.424Z,100915.38
2023-02-22T12:26:31.541Z,100917.69
2023-02-22T12:28:59.872Z,100914.63
2023-02-22T12:31:29.385Z,100914.31
2023-02-22T12:34:01.047Z,100919.25
2023-02-22T12:36:32.881Z,100919.72
2023-02-22T12:39:07.092Z,100920.44
2023-02-22T12:41:36.552Z,100918.69
2023-02-22T12:44:05.422Z,100921.09
2023-02-22T12:46:33.858Z,100918.44
2023-02-22T12:49:02.088Z,100910.41
2023-02-22T12:51:31.605Z,100914.63
2023-02-22T12:54:02.265Z,100921.47
2023-02-22T12:56:31.558Z,100925.78
2023-02-22T12:59:02.883Z,100921.97
2023-02-22T13:01:31.470Z,100928.00
2023-02-22T13:04:05.765Z,100932.91
2023-02-22T13:06:45.675Z,100928.25
2023-02-22T13:09:27.802Z,100924.28
2023-02-22T13:11:56.569Z,100918.69
2023-02-22T13:14:30.889Z,100923.72
2023-02-22T13:16:59.448Z,100922.69
2023-02-22T13:19:29.478Z,100918.00
2023-02-22T13:21:58.902Z,100921.38
2023-02-22T13:24:27.340Z,100918.63
2023-02-22T13:26:55.105Z,100914.19
2023-02-22T13:29:23.492Z,100924.75
2023-02-22T13:32:09.095Z,100921.13
2023-02-22T13:34:57.923Z,100915.84
2023-02-22T13:37:32.969Z,100912.25
2023-02-22T13:40:16.875Z,100910.34
2023-02-22T13:42:57.587Z,100907.81
2023-02-22T13:45:38.972Z,100900.63
2023-02-22T13:48:09.894Z,100899.78
2023-02-22T13:50:58.379Z,100896.41
2023-02-22T13:53:27.853Z,100884.19
2023-02-22T13:55:57.760Z,100885.88
2023-02-22T13:58:25.770Z,100885.88
2023-02-22T14:00:55.677Z,100884.19
2023-02-22T14:03:34.270Z,100878.91
2023-02-22T14:06:02.386Z,100881.53
2023-02-22T14:08:42.019Z,100880.59
2023-02-22T14:11:26.155Z,100869.91
2023-02-22T14:14:12.998Z,100866.22
2023-02-22T14:16:40.580Z,100870.53
2023-02-22T14:19:14.640Z,100876.53
2023-02-22T14:21:56.090Z,100867.63
2023-02-22T14:24:27.476Z,100867.41
2023-02-22T14:26:56.144Z,100870.78
2023-02-22T14:29:23.647Z,100866.94
2023-02-22T14:32:00.105Z,100868.59
2023-02-22T14:34:40.072Z,100868.38
2023-02-22T14:37:13.225Z,100875.09
2023-02-22T14:39:43.514Z,100868.75
2023-02-22T14:42:14.223Z,100876.56
2023-02-22T14:44:42.864Z,100873.78
2023-02-22T14:47:14.820Z,100878.22
2023-02-22T14:49:44.410Z,100886.88
2023-02-22T14:52:18.522Z,100880.75
2023-02-22T14:54:51.055Z,100878.94
2023-02-22T14:57:21.680Z,100881.59
2023-02-22T14:59:53.284Z,100887.00
2023-02-22T15:02:22.772Z,100888.78
2023-02-22T15:04:53.730Z,100881.84
2023-02-22T15:07:22.600Z,100880.16
2023-02-22T15:09:51.594Z,100888.19
2023-02-22T15:12:22.523Z,100887.47
2023-02-22T15:14:51.670Z,100890.09
2023-02-22T15:17:19.539Z,100892.84
2023-02-22T15:19:47.121Z,100888.53
2023-02-22T15:22:19.881Z,100890.34
2023-02-22T15:24:49.359Z,100890.34
2023-02-22T15:27:19.463Z,100880.63
2023-02-22T15:29:47.082Z,100885.91
2023-02-22T15:32:21.342Z,100881.59
2023-02-22T15:34:48.956Z,100879.66
2023-02-22T15:37:22.298Z,100878.81
2023-02-22T15:39:57.681Z,100875.59
2023-02-22T15:42:29.399Z,100872.00
2023-02-22T15:44:57.946Z,100872.13
2023-02-22T15:47:27.344Z,100872.22
2023-02-22T15:50:15.402Z,100875.81
2023-02-22T15:52:53.127Z,100880.38
2023-02-22T15:55:20.895Z,100883.97
2023-02-22T15:57:49.843Z,100885.91
2023-02-22T16:00:22.096Z,100881.56
2023-02-22T16:02:51.018Z,100880.84
2023-02-22T16:05:19.076Z,100887.91
2023-02-22T16:07:48.087Z,100894.28
2023-02-22T16:10:22.961Z,100892.59
2023-02-22T16:12:52.573Z,100891.03
2023-02-22T16:15:20.178Z,100890.19
2023-02-22T16:18:01.493Z,100888.75
2023-02-22T16:20:36.315Z,100894.03
2023-02-22T16:26:05.477Z,100900.69
2023-02-22T16:28:35.657Z,100896.00
2023-02-22T16:31:04.364Z,100900.09
2023-02-22T16:33:34.173Z,100901.28
2023-02-22T16:36:08.163Z,100895.63
2023-02-22T16:38:38.385Z,100889.81
2023-02-22T16:41:08.231Z,100905.06
2023-02-22T16:43:36.316Z,100898.56
2023-02-22T16:46:06.841Z,100907.22
2023-02-22T16:48:38.077Z,100904.34
2023-02-22T16:51:15.456Z,100913.97
2023-02-22T16:53:44.539Z,100912.84
2023-02-22T16:56:16.732Z,100917.31
2023-02-22T16:58:45.484Z,100916.47
2023-02-22T17:01:13.768Z,100911.03
2023-02-22T17:03:41.610Z,100921.63
2023-02-22T17:06:10.987Z,100915.50
2023-02-22T17:08:38.849Z,100916.47
2023-02-22T17:11:07.502Z,100916.47
2023-02-22T17:13:36.733Z,100919.25
2023-02-22T17:16:05.577Z,100916.59
2023-02-22T17:18:34.761Z,100919.47
2023-02-22T17:21:03.445Z,100922.97
2023-02-22T17:23:31.297Z,100934.38
2023-02-22T17:26:00.262Z,100930.91
2023-02-22T17:28:28.289Z,100928.38
2023-02-22T17:31:01.600Z,100932.00
2023-02-22T17:33:32.938Z,100923.34
2023-02-22T17:36:02.856Z,100940.91
2023-02-22T17:38:30.711Z,100934.91
2023-02-22T17:40:59.689Z,100938.50
2023-02-22T17:43:28.850Z,100945.56
2023-02-22T17:45:58.313Z,100949.19
2023-02-22T17:48:26.898Z,100952.81
2023-02-22T17:50:54.670Z,100958.22
2023-02-22T17:53:24.747Z,100964.47
2023-02-22T17:55:52.788Z,100970.00
2023-02-22T17:58:20.641Z,100967.59
2023-02-22T18:00:50.133Z,100966.06
2023-02-22T18:03:21.862Z,100973.25
2023-02-22T18:05:51.253Z,100964.84
2023-02-22T18:08:19.072Z,100972.91
2023-02-22T18:10:47.630Z,100967.63
2023-02-22T18:13:17.871Z,100967.13
2023-02-22T18:15:45.941Z,100966.44
2023-02-22T18:18:14.917Z,100959.69
2023-02-22T18:20:44.554Z,100956.34
2023-02-22T18:23:14.604Z,100960.91
2023-02-22T18:25:57.152Z,100964.47
2023-02-22T18:28:31.878Z,100966.28
2023-02-22T18:31:00.422Z,100975.16
2023-02-22T18:33:28.354Z,100973.47
2023-02-22T18:35:59.609Z,100972.88
2023-02-22T18:38:27.350Z,100977.34
2023-02-22T18:41:02.233Z,100970.25
2023-02-22T18:43:31.894Z,100972.88
2023-02-22T18:46:09.508Z,100973.94
2023-02-22T18:48:38.986Z,100973.38
2023-02-22T18:51:10.254Z,100972.75
2023-02-22T18:53:38.454Z,100973.63
2023-02-22T18:56:09.724Z,100985.13
2023-02-22T18:58:38.788Z,100982.72
2023-02-22T19:01:07.552Z,100987.28
2023-02-22T19:03:38.298Z,100981.25
2023-02-22T19:06:09.859Z,100979.38
2023-02-22T19:08:39.505Z,100985.63
2023-02-22T19:11:08.851Z,100986.53
2023-02-22T19:13:36.736Z,100986.53
2023-02-22T19:16:05.032Z,100988.47
2023-02-22T19:18:32.883Z,100992.09
2023-02-22T19:21:01.855Z,100984.16
2023-02-22T19:23:34.457Z,100987.88
2023-02-22T19:26:03.147Z,100978.38
2023-02-22T19:28:34.152Z,100970.44
2023-02-22T19:31:12.398Z,100989.44
2023-02-22T19:33:40.274Z,100983.41
2023-02-22T19:36:09.310Z,100988.09
2023-02-22T19:38:38.626Z,100990.84
2023-02-22T19:41:10.848Z,100988.44
2023-02-22T19:43:38.541Z,100998.03
2023-02-22T19:46:07.373Z,100995.50
2023-02-22T19:48:35.173Z,100992.28
2023-02-22T19:51:06.219Z,100987.84
2023-02-22T19:53:34.217Z,100992.16
2023-02-22T19:56:06.880Z,100989.53
2023-02-22T19:58:36.754Z,101000.09
2023-02-22T20:01:12.149Z,100994.91
2023-02-22T20:03:41.016Z,100999.25
2023-02-22T20:06:09.911Z,101003.06
2023-02-22T20:08:41.830Z,100998.16
2023-02-22T20:11:12.029Z,101004.38
2023-02-22T20:13:40.859Z,101008.81
2023-02-22T20:16:09.874Z,101007.13
2023-02-22T20:18:37.802Z,101008.06
2023-02-22T20:21:09.448Z,101009.03
2023-02-22T20:23:40.152Z,101006.53
2023-02-22T20:26:17.437Z,101013.72
2023-02-22T20:28:45.277Z,101011.16
2023-02-22T20:31:14.445Z,101018.38
2023-02-22T20:33:42.860Z,101012.38
2023-02-22T20:36:11.557Z,101017.53
2023-02-22T20:38:39.696Z,101014.78
2023-02-22T20:41:08.108Z,101023.66
2023-02-22T20:43:37.314Z,101020.81
2023-02-22T20:46:06.426Z,101019.22
2023-02-22T20:48:35.448Z,101024.63
2023-02-22T20:51:06.772Z,101022.44
2023-02-22T20:53:35.337Z,101014.88
2023-02-22T20:56:03.273Z,101032.16
2023-02-22T20:58:31.003Z,101030.34
2023-02-22T21:01:06.297Z,101034.66
2023-02-22T21:03:34.179Z,101032.03
2023-02-22T21:06:02.414Z,101038.16
2023-02-22T21:08:31.219Z,101034.56
2023-02-22T21:10:59.454Z,101034.47
2023-02-22T21:13:28.230Z,101037.22
2023-02-22T21:15:56.384Z,101031.94
2023-02-22T21:18:25.576Z,101032.78
2023-02-22T21:20:53.785Z,101047.66
2023-02-22T21:23:21.634Z,101040.78
2023-02-22T21:25:53.025Z,101046.06
2023-02-22T21:28:21.236Z,101044.50
2023-02-22T21:30:49.023Z,101036.59
2023-02-22T21:33:16.990Z,101034.06
2023-02-22T21:35:47.291Z,101043.53
2023-02-22T21:38:15.322Z,101044.38
2023-02-22T21:40:47.602Z,101042.59
2023-02-22T21:43:16.664Z,101041.03
2023-02-22T21:45:44.497Z,101038.50
2023-02-22T21:48:12.285Z,101048.22
2023-02-22T21:50:40.669Z,101048.44
2023-02-22T21:53:09.917Z,101045.91
2023-02-22T21:55:38.317Z,101046.63
2023-02-22T21:58:08.656Z,101045.91
2023-02-22T22:00:39.126Z,101045.91
2023-02-22T22:03:11.647Z,101047.59
2023-02-22T22:05:40.351Z,101041.25
2023-02-22T22:08:13.311Z,101041.47
2023-02-22T22:10:41.090Z,101036.31
2023-02-22T22:13:09.167Z,101037.28
2023-02-22T22:15:37.490Z,101038.13
2023-02-22T22:18:08.078Z,101029.34
2023-02-22T22:20:39.059Z,101031.03
2023-02-22T22:23:08.889Z,101035.34
2023-02-22T22:25:38.960Z,101030.06
2023-02-22T22:28:07.917Z,101038.81
2023-02-22T22:30:37.067Z,101032.59
2023-02-22T22:33:05.862Z,101033.44
2023-02-22T22:35:33.758Z,101033.34
2023-02-22T22:38:02.119Z,101032.59
2023-02-22T22:40:30.103Z,101037.03
2023-02-22T22:42:59.264Z,101030.06
2023-02-22T22:45:26.992Z,101033.66
2023-02-22T22:47:54.863Z,101032.84
2023-02-22T22:50:26.348Z,101033.66
2023-02-22T22:52:56.855Z,101040.75
2023-02-22T22:55:25.019Z,101041.81
2023-02-22T22:57:52.761Z,101041.81
2023-02-22T23:00:35.900Z,101045.44
2023-02-22T23:03:05.506Z,101048.91
2023-02-22T23:05:37.277Z,101048.06
2023-02-22T23:08:06.050Z,101042.78
2023-02-22T23:10:39.258Z,101045.44
2023-02-22T23:13:09.848Z,101043.09
2023-02-22T23:15:42.948Z,101050.19
2023-02-22T23:18:11.029Z,101054.00
2023-02-22T23:20:39.071Z,101051.34
2023-02-22T23:23:07.138Z,101052.94
2023-02-22T23:25:35.161Z,101055.47
2023-02-22T23:28:03.053Z,101057.16
2023-02-22T23:30:30.885Z,101047.75
2023-02-22T23:33:01.212Z,101049.78
2023-02-22T23:35:28.991Z,101040.31
2023-02-22T23:37:58.666Z,101055.31
2023-02-22T23:40:26.890Z,101042.00
2023-02-22T23:42:54.914Z,101050.63
2023-02-22T23:45:24.517Z,101063.81
2023-02-22T23:47:54.982Z,101061.41
2023-02-22T23:50:25.950Z,101064.06
2023-02-22T23:52:58.621Z,101060.56
2023-02-22T23:55:27.031Z,101067.41
2023-02-22T23:57:59.287Z,101067.41
